sensor_id;sensor_type;location;lat;lon;timestamp;P1;durP1;ratioP1;P2;durP2;ratioP2
40046;SDS011;31510;48.122;11.576;2022-08-04T00:01:31;4.60;;;3.15;;
40046;SDS011;31510;48.122;11.576;2022-08-04T00:04:09;4.13;;;3.13;;
40046;SDS011;31510;48.122;11.576;2022-08-04T00:09:20;5.00;;;3.28;;
40046;SDS011;31510;48.122;11.576;2022-08-04T00:11:54;7.07;;;3.33;;
40046;SDS011;31510;48.122;11.576;2022-08-04T00:14:24;5.43;;;3.72;;
40046;SDS011;31510;48.122;11.576;2022-08-04T00:16:52;4.90;;;2.83;;
40046;SDS011;31510;48.122;11.576;2022-08-04T00:20:01;5.93;;;2.60;;
40046;SDS011;31510;48.122;11.576;2022-08-04T00:22:12;5.10;;;3.20;;
40046;SDS011;31510;48.122;11.576;2022-08-04T00:24:41;4.70;;;3.35;;
40046;SDS011;31510;48.122;11.576;2022-08-04T00:27:08;7.00;;;4.20;;
40046;SDS011;31510;48.122;11.576;2022-08-04T00:29:34;5.50;;;3.45;;
40046;SDS011;31510;48.122;11.576;2022-08-04T00:32:02;13.55;;;4.45;;
40046;SDS011;31510;48.122;11.576;2022-08-04T00:34:28;4.50;;;3.42;;
40046;SDS011;31510;48.122;11.576;2022-08-04T00:36:55;5.03;;;3.75;;
40046;SDS011;31510;48.122;11.576;2022-08-04T00:39:22;5.82;;;3.38;;
40046;SDS011;31510;48.122;11.576;2022-08-04T00:47:48;4.50;;;3.05;;
40046;SDS011;31510;48.122;11.576;2022-08-04T00:51:01;3.70;;;2.80;;
40046;SDS011;31510;48.122;11.576;2022-08-04T00:56:30;6.28;;;3.63;;
40046;SDS011;31510;48.122;11.576;2022-08-04T01:04:33;4.93;;;3.67;;
40046;SDS011;31510;48.122;11.576;2022-08-04T01:12:53;3.80;;;2.90;;
40046;SDS011;31510;48.122;11.576;2022-08-04T01:18:19;3.83;;;2.88;;
40046;SDS011;31510;48.122;11.576;2022-08-04T01:20:51;21.77;;;4.22;;
40046;SDS011;31510;48.122;11.576;2022-08-04T01:34:15;4.65;;;3.20;;
40046;SDS011;31510;48.122;11.576;2022-08-04T01:36:46;3.50;;;2.95;;
40046;SDS011;31510;48.122;11.576;2022-08-04T01:39:18;3.58;;;3.28;;
40046;SDS011;31510;48.122;11.576;2022-08-04T01:42:03;5.40;;;3.80;;
40046;SDS011;31510;48.122;11.576;2022-08-04T01:44:29;5.45;;;3.10;;
40046;SDS011;31510;48.122;11.576;2022-08-04T01:46:56;4.65;;;2.88;;
40046;SDS011;31510;48.122;11.576;2022-08-04T01:49:27;4.47;;;3.17;;
40046;SDS011;31510;48.122;11.576;2022-08-04T01:51:56;3.35;;;3.05;;
40046;SDS011;31510;48.122;11.576;2022-08-04T01:54:23;4.25;;;3.08;;
40046;SDS011;31510;48.122;11.576;2022-08-04T01:56:50;4.40;;;2.63;;
40046;SDS011;31510;48.122;11.576;2022-08-04T01:59:17;3.92;;;3.17;;
40046;SDS011;31510;48.122;11.576;2022-08-04T02:01:44;3.42;;;2.50;;
40046;SDS011;31510;48.122;11.576;2022-08-04T02:04:13;3.13;;;2.70;;
40046;SDS011;31510;48.122;11.576;2022-08-04T02:09:28;5.32;;;3.38;;
40046;SDS011;31510;48.122;11.576;2022-08-04T02:12:06;5.30;;;3.40;;
40046;SDS011;31510;48.122;11.576;2022-08-04T02:17:52;5.78;;;3.30;;
40046;SDS011;31510;48.122;11.576;2022-08-04T02:20:23;6.28;;;2.72;;
40046;SDS011;31510;48.122;11.576;2022-08-04T02:22:59;4.93;;;3.03;;
40046;SDS011;31510;48.122;11.576;2022-08-04T02:25:31;3.50;;;2.70;;
40046;SDS011;31510;48.122;11.576;2022-08-04T02:28:20;4.70;;;2.53;;
40046;SDS011;31510;48.122;11.576;2022-08-04T02:30:51;7.93;;;3.05;;
40046;SDS011;31510;48.122;11.576;2022-08-04T02:33:27;4.60;;;3.63;;
40046;SDS011;31510;48.122;11.576;2022-08-04T02:36:00;3.67;;;2.90;;
40046;SDS011;31510;48.122;11.576;2022-08-04T02:38:51;3.95;;;2.78;;
40046;SDS011;31510;48.122;11.576;2022-08-04T02:41:20;6.35;;;3.00;;
40046;SDS011;31510;48.122;11.576;2022-08-04T02:43:47;8.35;;;2.42;;
40046;SDS011;31510;48.122;11.576;2022-08-04T02:46:14;6.78;;;2.88;;
40046;SDS011;31510;48.122;11.576;2022-08-04T02:48:43;2.35;;;2.03;;
40046;SDS011;31510;48.122;11.576;2022-08-04T02:51:10;12.73;;;2.53;;
40046;SDS011;31510;48.122;11.576;2022-08-04T02:53:37;2.65;;;2.45;;
40046;SDS011;31510;48.122;11.576;2022-08-04T02:56:06;3.33;;;2.40;;
40046;SDS011;31510;48.122;11.576;2022-08-04T02:58:33;5.18;;;3.00;;
40046;SDS011;31510;48.122;11.576;2022-08-04T03:00:59;4.15;;;2.85;;
40046;SDS011;31510;48.122;11.576;2022-08-04T03:03:30;3.80;;;2.85;;
40046;SDS011;31510;48.122;11.576;2022-08-04T03:12:03;4.95;;;2.70;;
40046;SDS011;31510;48.122;11.576;2022-08-04T03:37:01;4.43;;;3.67;;
40046;SDS011;31510;48.122;11.576;2022-08-04T03:44:52;5.40;;;3.10;;
40046;SDS011;31510;48.122;11.576;2022-08-04T03:50:32;7.50;;;3.45;;
40046;SDS011;31510;48.122;11.576;2022-08-04T03:56:10;3.97;;;2.80;;
40046;SDS011;31510;48.122;11.576;2022-08-04T04:01:45;5.03;;;2.72;;
40046;SDS011;31510;48.122;11.576;2022-08-04T04:05:03;4.85;;;2.97;;
40046;SDS011;31510;48.122;11.576;2022-08-04T04:20:57;4.88;;;3.20;;
40046;SDS011;31510;48.122;11.576;2022-08-04T04:32:04;6.28;;;3.75;;
40046;SDS011;31510;48.122;11.576;2022-08-04T04:35:02;4.75;;;2.97;;
40046;SDS011;31510;48.122;11.576;2022-08-04T04:40:33;4.00;;;3.20;;
40046;SDS011;31510;48.122;11.576;2022-08-04T04:45:59;5.72;;;2.95;;
40046;SDS011;31510;48.122;11.576;2022-08-04T04:48:45;4.35;;;3.55;;
40046;SDS011;31510;48.122;11.576;2022-08-04T04:51:36;3.78;;;3.25;;
40046;SDS011;31510;48.122;11.576;2022-08-04T04:54:10;6.00;;;3.55;;
40046;SDS011;31510;48.122;11.576;2022-08-04T04:56:44;4.63;;;2.88;;
40046;SDS011;31510;48.122;11.576;2022-08-04T04:59:16;6.65;;;2.90;;
40046;SDS011;31510;48.122;11.576;2022-08-04T05:10:19;7.05;;;3.50;;
40046;SDS011;31510;48.122;11.576;2022-08-04T05:13:07;3.60;;;3.13;;
40046;SDS011;31510;48.122;11.576;2022-08-04T05:15:34;5.35;;;3.97;;
40046;SDS011;31510;48.122;11.576;2022-08-04T05:18:01;5.07;;;3.88;;
40046;SDS011;31510;48.122;11.576;2022-08-04T05:20:37;6.03;;;3.70;;
40046;SDS011;31510;48.122;11.576;2022-08-04T05:23:12;5.18;;;3.38;;
40046;SDS011;31510;48.122;11.576;2022-08-04T05:25:50;4.30;;;3.50;;
40046;SDS011;31510;48.122;11.576;2022-08-04T05:31:07;5.47;;;3.75;;
40046;SDS011;31510;48.122;11.576;2022-08-04T05:33:49;4.65;;;3.20;;
40046;SDS011;31510;48.122;11.576;2022-08-04T05:36:19;3.53;;;3.13;;
40046;SDS011;31510;48.122;11.576;2022-08-04T05:38:49;5.35;;;4.05;;
40046;SDS011;31510;48.122;11.576;2022-08-04T05:41:17;4.88;;;3.63;;
40046;SDS011;31510;48.122;11.576;2022-08-04T05:43:44;4.05;;;3.22;;
40046;SDS011;31510;48.122;11.576;2022-08-04T05:46:10;8.02;;;3.42;;
40046;SDS011;31510;48.122;11.576;2022-08-04T05:48:37;8.15;;;3.40;;
40046;SDS011;31510;48.122;11.576;2022-08-04T05:51:04;9.90;;;3.70;;
40046;SDS011;31510;48.122;11.576;2022-08-04T05:53:33;5.35;;;3.72;;
40046;SDS011;31510;48.122;11.576;2022-08-04T05:55:58;3.50;;;3.20;;
40046;SDS011;31510;48.122;11.576;2022-08-04T05:58:29;5.05;;;4.10;;
40046;SDS011;31510;48.122;11.576;2022-08-04T06:00:55;3.88;;;3.40;;
40046;SDS011;31510;48.122;11.576;2022-08-04T06:03:23;5.82;;;3.88;;
40046;SDS011;31510;48.122;11.576;2022-08-04T06:05:51;4.28;;;3.72;;
40046;SDS011;31510;48.122;11.576;2022-08-04T06:08:16;5.95;;;3.75;;
40046;SDS011;31510;48.122;11.576;2022-08-04T06:10:42;7.03;;;4.40;;
40046;SDS011;31510;48.122;11.576;2022-08-04T06:13:12;5.03;;;4.25;;
40046;SDS011;31510;48.122;11.576;2022-08-04T06:15:41;4.03;;;3.33;;
40046;SDS011;31510;48.122;11.576;2022-08-04T06:18:11;6.43;;;3.90;;
40046;SDS011;31510;48.122;11.576;2022-08-04T06:20:38;3.90;;;3.50;;
40046;SDS011;31510;48.122;11.576;2022-08-04T06:23:06;4.97;;;3.65;;
40046;SDS011;31510;48.122;11.576;2022-08-04T06:25:38;4.75;;;3.50;;
40046;SDS011;31510;48.122;11.576;2022-08-04T06:28:09;4.60;;;3.58;;
40046;SDS011;31510;48.122;11.576;2022-08-04T06:30:37;5.93;;;3.65;;
40046;SDS011;31510;48.122;11.576;2022-08-04T06:33:03;11.85;;;3.65;;
40046;SDS011;31510;48.122;11.576;2022-08-04T06:35:37;4.30;;;3.40;;
40046;SDS011;31510;48.122;11.576;2022-08-04T06:38:04;4.10;;;3.70;;
40046;SDS011;31510;48.122;11.576;2022-08-04T06:40:30;5.03;;;3.85;;
40046;SDS011;31510;48.122;11.576;2022-08-04T06:42:57;6.50;;;3.50;;
40046;SDS011;31510;48.122;11.576;2022-08-04T06:45:25;4.25;;;3.20;;
40046;SDS011;31510;48.122;11.576;2022-08-04T06:47:51;4.60;;;3.95;;
40046;SDS011;31510;48.122;11.576;2022-08-04T06:50:18;7.10;;;4.05;;
40046;SDS011;31510;48.122;11.576;2022-08-04T06:52:44;9.82;;;4.07;;
40046;SDS011;31510;48.122;11.576;2022-08-04T06:55:10;7.00;;;4.00;;
40046;SDS011;31510;48.122;11.576;2022-08-04T06:57:36;4.53;;;3.60;;
40046;SDS011;31510;48.122;11.576;2022-08-04T07:02:49;7.82;;;3.65;;
40046;SDS011;31510;48.122;11.576;2022-08-04T07:05:16;5.20;;;3.50;;
40046;SDS011;31510;48.122;11.576;2022-08-04T07:07:42;6.53;;;3.70;;
40046;SDS011;31510;48.122;11.576;2022-08-04T07:10:09;6.03;;;3.50;;
40046;SDS011;31510;48.122;11.576;2022-08-04T07:12:35;5.47;;;3.75;;
40046;SDS011;31510;48.122;11.576;2022-08-04T07:15:02;4.10;;;3.67;;
40046;SDS011;31510;48.122;11.576;2022-08-04T07:17:31;5.30;;;3.88;;
40046;SDS011;31510;48.122;11.576;2022-08-04T07:19:57;8.32;;;4.45;;
40046;SDS011;31510;48.122;11.576;2022-08-04T07:22:23;8.63;;;3.92;;
40046;SDS011;31510;48.122;11.576;2022-08-04T07:24:52;5.15;;;3.53;;
40046;SDS011;31510;48.122;11.576;2022-08-04T07:27:19;5.65;;;3.05;;
40046;SDS011;31510;48.122;11.576;2022-08-04T07:29:44;6.57;;;3.13;;
40046;SDS011;31510;48.122;11.576;2022-08-04T07:32:11;5.07;;;3.55;;
40046;SDS011;31510;48.122;11.576;2022-08-04T07:34:37;3.70;;;3.25;;
40046;SDS011;31510;48.122;11.576;2022-08-04T07:37:04;3.60;;;3.30;;
40046;SDS011;31510;48.122;11.576;2022-08-04T07:39:30;4.95;;;3.78;;
40046;SDS011;31510;48.122;11.576;2022-08-04T07:41:58;3.92;;;3.33;;
40046;SDS011;31510;48.122;11.576;2022-08-04T07:44:24;5.35;;;3.70;;
40046;SDS011;31510;48.122;11.576;2022-08-04T07:46:50;15.80;;;4.20;;
40046;SDS011;31510;48.122;11.576;2022-08-04T07:49:15;5.97;;;3.37;;
40046;SDS011;31510;48.122;11.576;2022-08-04T07:51:41;3.40;;;3.10;;
40046;SDS011;31510;48.122;11.576;2022-08-04T07:54:07;4.47;;;3.47;;
40046;SDS011;31510;48.122;11.576;2022-08-04T07:56:35;4.40;;;4.00;;
40046;SDS011;31510;48.122;11.576;2022-08-04T07:59:01;5.65;;;4.30;;
40046;SDS011;31510;48.122;11.576;2022-08-04T08:01:28;5.63;;;3.83;;
40046;SDS011;31510;48.122;11.576;2022-08-04T08:03:54;5.30;;;4.13;;
40046;SDS011;31510;48.122;11.576;2022-08-04T08:06:21;7.40;;;4.00;;
40046;SDS011;31510;48.122;11.576;2022-08-04T08:08:47;7.80;;;3.45;;
40046;SDS011;31510;48.122;11.576;2022-08-04T08:11:13;5.05;;;3.33;;
40046;SDS011;31510;48.122;11.576;2022-08-04T08:13:40;3.70;;;3.40;;
40046;SDS011;31510;48.122;11.576;2022-08-04T08:16:05;5.47;;;3.58;;
40046;SDS011;31510;48.122;11.576;2022-08-04T08:18:31;5.90;;;3.47;;
40046;SDS011;31510;48.122;11.576;2022-08-04T08:20:57;3.92;;;3.33;;
40046;SDS011;31510;48.122;11.576;2022-08-04T08:23:22;3.55;;;3.25;;
40046;SDS011;31510;48.122;11.576;2022-08-04T08:25:49;4.28;;;3.88;;
40046;SDS011;31510;48.122;11.576;2022-08-04T08:28:14;3.72;;;3.30;;
40046;SDS011;31510;48.122;11.576;2022-08-04T08:30:41;6.10;;;3.58;;
40046;SDS011;31510;48.122;11.576;2022-08-04T08:33:07;8.35;;;3.25;;
40046;SDS011;31510;48.122;11.576;2022-08-04T08:35:46;3.50;;;3.20;;
40046;SDS011;31510;48.122;11.576;2022-08-04T08:38:16;3.63;;;3.33;;
40046;SDS011;31510;48.122;11.576;2022-08-04T08:40:47;4.85;;;3.50;;
40046;SDS011;31510;48.122;11.576;2022-08-04T08:49:06;8.23;;;4.20;;
40046;SDS011;31510;48.122;11.576;2022-08-04T08:51:43;4.47;;;3.55;;
40046;SDS011;31510;48.122;11.576;2022-08-04T09:11:18;6.00;;;3.28;;
40046;SDS011;31510;48.122;11.576;2022-08-04T09:13:49;10.82;;;3.88;;
40046;SDS011;31510;48.122;11.576;2022-08-04T09:16:21;4.35;;;3.78;;
40046;SDS011;31510;48.122;11.576;2022-08-04T09:19:03;5.57;;;3.45;;
40046;SDS011;31510;48.122;11.576;2022-08-04T09:30:31;4.85;;;3.20;;
40046;SDS011;31510;48.122;11.576;2022-08-04T09:36:00;3.85;;;3.30;;
40046;SDS011;31510;48.122;11.576;2022-08-04T09:38:45;11.55;;;3.30;;
40046;SDS011;31510;48.122;11.576;2022-08-04T09:43:59;3.28;;;2.90;;
40046;SDS011;31510;48.122;11.576;2022-08-04T09:49:37;4.95;;;2.88;;
40046;SDS011;31510;48.122;11.576;2022-08-04T09:52:16;3.10;;;2.47;;
40046;SDS011;31510;48.122;11.576;2022-08-04T09:57:38;2.83;;;2.08;;
40046;SDS011;31510;48.122;11.576;2022-08-04T10:00:15;3.83;;;3.10;;
40046;SDS011;31510;48.122;11.576;2022-08-04T10:02:43;4.53;;;2.72;;
40046;SDS011;31510;48.122;11.576;2022-08-04T10:05:15;2.70;;;1.95;;
40046;SDS011;31510;48.122;11.576;2022-08-04T10:27:23;2.25;;;2.03;;
40046;SDS011;31510;48.122;11.576;2022-08-04T10:29:49;2.95;;;2.20;;
40046;SDS011;31510;48.122;11.576;2022-08-04T10:32:24;2.63;;;1.95;;
40046;SDS011;31510;48.122;11.576;2022-08-04T10:37:30;2.60;;;2.22;;
40046;SDS011;31510;48.122;11.576;2022-08-04T10:40:06;3.28;;;2.75;;
40046;SDS011;31510;48.122;11.576;2022-08-04T10:42:59;4.53;;;2.00;;
40046;SDS011;31510;48.122;11.576;2022-08-04T10:45:40;3.95;;;2.60;;
40046;SDS011;31510;48.122;11.576;2022-08-04T10:48:22;5.93;;;5.43;;
40046;SDS011;31510;48.122;11.576;2022-08-04T10:53:44;5.15;;;3.00;;
40046;SDS011;31510;48.122;11.576;2022-08-04T10:56:18;4.47;;;4.07;;
40046;SDS011;31510;48.122;11.576;2022-08-04T10:58:55;3.70;;;2.65;;
40046;SDS011;31510;48.122;11.576;2022-08-04T11:01:32;5.05;;;2.97;;
40046;SDS011;31510;48.122;11.576;2022-08-04T11:04:07;2.83;;;2.53;;
40046;SDS011;31510;48.122;11.576;2022-08-04T11:06:39;6.75;;;2.92;;
40046;SDS011;31510;48.122;11.576;2022-08-04T11:09:05;6.93;;;2.25;;
40046;SDS011;31510;48.122;11.576;2022-08-04T11:11:34;2.90;;;2.58;;
40046;SDS011;31510;48.122;11.576;2022-08-04T11:14:10;2.10;;;1.90;;
40046;SDS011;31510;48.122;11.576;2022-08-04T11:16:53;2.40;;;2.20;;
40046;SDS011;31510;48.122;11.576;2022-08-04T11:19:36;2.80;;;2.20;;
40046;SDS011;31510;48.122;11.576;2022-08-04T11:22:24;4.13;;;2.50;;
40046;SDS011;31510;48.122;11.576;2022-08-04T11:31:07;5.47;;;2.40;;
40046;SDS011;31510;48.122;11.576;2022-08-04T11:36:19;3.40;;;2.38;;
40046;SDS011;31510;48.122;11.576;2022-08-04T11:38:57;4.22;;;2.13;;
40046;SDS011;31510;48.122;11.576;2022-08-04T11:41:49;3.22;;;2.22;;
40046;SDS011;31510;48.122;11.576;2022-08-04T11:44:25;6.13;;;2.38;;
40046;SDS011;31510;48.122;11.576;2022-08-04T11:47:00;5.68;;;2.47;;
40046;SDS011;31510;48.122;11.576;2022-08-04T11:49:39;2.25;;;1.88;;
40046;SDS011;31510;48.122;11.576;2022-08-04T11:52:08;3.00;;;2.43;;
40046;SDS011;31510;48.122;11.576;2022-08-04T11:54:36;2.85;;;1.95;;
40046;SDS011;31510;48.122;11.576;2022-08-04T11:57:05;2.42;;;2.22;;
40046;SDS011;31510;48.122;11.576;2022-08-04T11:59:32;3.13;;;2.15;;
40046;SDS011;31510;48.122;11.576;2022-08-04T12:02:10;2.15;;;1.95;;
40046;SDS011;31510;48.122;11.576;2022-08-04T12:05:00;5.38;;;2.28;;
40046;SDS011;31510;48.122;11.576;2022-08-04T12:13:07;3.58;;;1.65;;
40046;SDS011;31510;48.122;11.576;2022-08-04T12:15:43;3.47;;;1.88;;
40046;SDS011;31510;48.122;11.576;2022-08-04T12:18:33;3.10;;;1.95;;
40046;SDS011;31510;48.122;11.576;2022-08-04T12:21:30;2.50;;;2.00;;
40046;SDS011;31510;48.122;11.576;2022-08-04T12:24:01;2.30;;;1.95;;
40046;SDS011;31510;48.122;11.576;2022-08-04T12:26:31;3.67;;;2.10;;
40046;SDS011;31510;48.122;11.576;2022-08-04T12:29:01;2.10;;;2.00;;
40046;SDS011;31510;48.122;11.576;2022-08-04T12:31:33;2.83;;;2.05;;
40046;SDS011;31510;48.122;11.576;2022-08-04T12:37:13;2.13;;;2.03;;
40046;SDS011;31510;48.122;11.576;2022-08-04T12:39:45;2.17;;;1.98;;
40046;SDS011;31510;48.122;11.576;2022-08-04T12:42:21;4.63;;;1.95;;
40046;SDS011;31510;48.122;11.576;2022-08-04T12:44:53;2.75;;;2.28;;
40046;SDS011;31510;48.122;11.576;2022-08-04T12:47:24;2.20;;;1.73;;
40046;SDS011;31510;48.122;11.576;2022-08-04T12:49:51;2.20;;;2.00;;
40046;SDS011;31510;48.122;11.576;2022-08-04T12:52:19;2.40;;;2.13;;
40046;SDS011;31510;48.122;11.576;2022-08-04T12:54:47;2.28;;;2.08;;
40046;SDS011;31510;48.122;11.576;2022-08-04T12:57:17;2.88;;;2.30;;
40046;SDS011;31510;48.122;11.576;2022-08-04T12:59:45;2.15;;;1.88;;
40046;SDS011;31510;48.122;11.576;2022-08-04T13:02:13;4.57;;;2.10;;
40046;SDS011;31510;48.122;11.576;2022-08-04T13:04:46;5.28;;;1.98;;
40046;SDS011;31510;48.122;11.576;2022-08-04T13:07:13;2.78;;;2.22;;
40046;SDS011;31510;48.122;11.576;2022-08-04T13:09:43;6.60;;;1.90;;
40046;SDS011;31510;48.122;11.576;2022-08-04T13:12:11;2.45;;;2.25;;
40046;SDS011;31510;48.122;11.576;2022-08-04T13:14:39;3.08;;;2.50;;
40046;SDS011;31510;48.122;11.576;2022-08-04T13:17:07;1.95;;;1.77;;
40046;SDS011;31510;48.122;11.576;2022-08-04T13:19:32;3.45;;;2.17;;
40046;SDS011;31510;48.122;11.576;2022-08-04T13:21:58;3.55;;;2.42;;
40046;SDS011;31510;48.122;11.576;2022-08-04T13:24:24;2.83;;;2.17;;
40046;SDS011;31510;48.122;11.576;2022-08-04T13:26:53;3.80;;;2.13;;
40046;SDS011;31510;48.122;11.576;2022-08-04T13:32:08;4.68;;;1.90;;
40046;SDS011;31510;48.122;11.576;2022-08-04T13:34:35;2.08;;;1.98;;
40046;SDS011;31510;48.122;11.576;2022-08-04T13:39:30;2.20;;;2.00;;
40046;SDS011;31510;48.122;11.576;2022-08-04T13:41:59;2.75;;;2.20;;
40046;SDS011;31510;48.122;11.576;2022-08-04T13:44:28;4.40;;;2.10;;
40046;SDS011;31510;48.122;11.576;2022-08-04T13:49:25;4.15;;;2.28;;
40046;SDS011;31510;48.122;11.576;2022-08-04T13:51:52;4.60;;;2.30;;
40046;SDS011;31510;48.122;11.576;2022-08-04T13:54:19;4.75;;;1.80;;
40046;SDS011;31510;48.122;11.576;2022-08-04T13:56:49;2.95;;;2.10;;
40046;SDS011;31510;48.122;11.576;2022-08-04T13:59:19;4.30;;;1.65;;
40046;SDS011;31510;48.122;11.576;2022-08-04T14:01:55;2.35;;;1.67;;
40046;SDS011;31510;48.122;11.576;2022-08-04T14:04:24;4.88;;;2.25;;
40046;SDS011;31510;48.122;11.576;2022-08-04T14:09:25;3.78;;;1.90;;
40046;SDS011;31510;48.122;11.576;2022-08-04T14:11:53;2.35;;;2.10;;
40046;SDS011;31510;48.122;11.576;2022-08-04T14:17:04;2.42;;;2.20;;
40046;SDS011;31510;48.122;11.576;2022-08-04T14:19:53;4.25;;;2.10;;
40046;SDS011;31510;48.122;11.576;2022-08-04T14:27:45;4.82;;;2.30;;
40046;SDS011;31510;48.122;11.576;2022-08-04T14:30:31;3.92;;;2.83;;
40046;SDS011;31510;48.122;11.576;2022-08-04T14:33:06;3.60;;;2.10;;
40046;SDS011;31510;48.122;11.576;2022-08-04T14:35:41;1.98;;;1.88;;
40046;SDS011;31510;48.122;11.576;2022-08-04T14:38:08;2.83;;;2.35;;
40046;SDS011;31510;48.122;11.576;2022-08-04T14:40:36;2.45;;;2.25;;
40046;SDS011;31510;48.122;11.576;2022-08-04T14:43:03;2.75;;;2.47;;
40046;SDS011;31510;48.122;11.576;2022-08-04T14:45:37;5.32;;;2.50;;
40046;SDS011;31510;48.122;11.576;2022-08-04T14:48:08;2.97;;;2.00;;
40046;SDS011;31510;48.122;11.576;2022-08-04T14:50:38;2.08;;;1.88;;
40046;SDS011;31510;48.122;11.576;2022-08-04T14:53:11;2.22;;;2.00;;
40046;SDS011;31510;48.122;11.576;2022-08-04T14:55:42;8.27;;;2.92;;
40046;SDS011;31510;48.122;11.576;2022-08-04T15:01:02;2.28;;;2.08;;
40046;SDS011;31510;48.122;11.576;2022-08-04T15:03:30;4.40;;;2.38;;
40046;SDS011;31510;48.122;11.576;2022-08-04T15:05:56;2.83;;;2.08;;
40046;SDS011;31510;48.122;11.576;2022-08-04T15:08:23;3.97;;;2.47;;
40046;SDS011;31510;48.122;11.576;2022-08-04T15:10:49;4.15;;;2.03;;
40046;SDS011;31510;48.122;11.576;2022-08-04T15:13:15;3.85;;;2.03;;
40046;SDS011;31510;48.122;11.576;2022-08-04T15:15:41;3.38;;;2.28;;
40046;SDS011;31510;48.122;11.576;2022-08-04T15:18:07;2.97;;;2.20;;
40046;SDS011;31510;48.122;11.576;2022-08-04T15:20:34;2.40;;;2.20;;
40046;SDS011;31510;48.122;11.576;2022-08-04T15:23:02;3.28;;;2.20;;
40046;SDS011;31510;48.122;11.576;2022-08-04T15:25:31;8.07;;;2.90;;
40046;SDS011;31510;48.122;11.576;2022-08-04T15:28:00;4.13;;;2.38;;
40046;SDS011;31510;48.122;11.576;2022-08-04T15:30:26;4.38;;;2.05;;
40046;SDS011;31510;48.122;11.576;2022-08-04T15:32:55;2.85;;;2.05;;
40046;SDS011;31510;48.122;11.576;2022-08-04T15:35:24;5.03;;;2.37;;
40046;SDS011;31510;48.122;11.576;2022-08-04T15:40:29;3.28;;;1.95;;
40046;SDS011;31510;48.122;11.576;2022-08-04T15:46:09;3.25;;;2.80;;
40046;SDS011;31510;48.122;11.576;2022-08-04T15:48:35;6.47;;;2.35;;
40046;SDS011;31510;48.122;11.576;2022-08-04T15:51:03;3.75;;;2.28;;
40046;SDS011;31510;48.122;11.576;2022-08-04T15:58:49;2.33;;;2.13;;
40046;SDS011;31510;48.122;11.576;2022-08-04T16:01:15;4.18;;;2.38;;
40046;SDS011;31510;48.122;11.576;2022-08-04T16:03:42;2.17;;;1.98;;
40046;SDS011;31510;48.122;11.576;2022-08-04T16:18:54;4.38;;;2.10;;
40046;SDS011;31510;48.122;11.576;2022-08-04T16:21:23;3.88;;;2.65;;
40046;SDS011;31510;48.122;11.576;2022-08-04T16:29:00;2.38;;;2.17;;
40046;SDS011;31510;48.122;11.576;2022-08-04T16:31:27;6.13;;;2.53;;
40046;SDS011;31510;48.122;11.576;2022-08-04T16:33:57;7.05;;;2.88;;
40046;SDS011;31510;48.122;11.576;2022-08-04T16:36:53;2.63;;;2.13;;
40046;SDS011;31510;48.122;11.576;2022-08-04T16:39:19;5.85;;;3.20;;
40046;SDS011;31510;48.122;11.576;2022-08-04T16:41:44;2.93;;;2.60;;
40046;SDS011;31510;48.122;11.576;2022-08-04T16:46:56;2.65;;;2.40;;
40046;SDS011;31510;48.122;11.576;2022-08-04T16:49:23;2.75;;;2.22;;
40046;SDS011;31510;48.122;11.576;2022-08-04T16:51:50;2.50;;;2.00;;
40046;SDS011;31510;48.122;11.576;2022-08-04T16:54:15;2.92;;;2.10;;
40046;SDS011;31510;48.122;11.576;2022-08-04T16:56:41;3.22;;;2.30;;
40046;SDS011;31510;48.122;11.576;2022-08-04T16:59:07;4.05;;;2.47;;
40046;SDS011;31510;48.122;11.576;2022-08-04T17:01:34;8.05;;;2.13;;
40046;SDS011;31510;48.122;11.576;2022-08-04T17:04:01;2.50;;;2.30;;
40046;SDS011;31510;48.122;11.576;2022-08-04T17:06:37;3.13;;;2.25;;
40046;SDS011;31510;48.122;11.576;2022-08-04T17:09:11;2.42;;;2.22;;
40046;SDS011;31510;48.122;11.576;2022-08-04T17:11:39;4.15;;;2.85;;
40046;SDS011;31510;48.122;11.576;2022-08-04T17:14:06;3.08;;;2.42;;
40046;SDS011;31510;48.122;11.576;2022-08-04T17:16:36;2.50;;;2.28;;
40046;SDS011;31510;48.122;11.576;2022-08-04T17:19:04;4.90;;;2.13;;
40046;SDS011;31510;48.122;11.576;2022-08-04T17:21:32;3.28;;;2.30;;
40046;SDS011;31510;48.122;11.576;2022-08-04T17:23:59;4.60;;;2.50;;
40046;SDS011;31510;48.122;11.576;2022-08-04T17:26:27;3.17;;;2.40;;
40046;SDS011;31510;48.122;11.576;2022-08-04T17:28:55;5.03;;;2.80;;
40046;SDS011;31510;48.122;11.576;2022-08-04T17:31:21;2.90;;;2.47;;
40046;SDS011;31510;48.122;11.576;2022-08-04T17:33:49;3.92;;;2.88;;
40046;SDS011;31510;48.122;11.576;2022-08-04T17:36:17;3.97;;;2.75;;
40046;SDS011;31510;48.122;11.576;2022-08-04T17:38:48;6.55;;;2.92;;
40046;SDS011;31510;48.122;11.576;2022-08-04T17:41:19;4.35;;;2.53;;
40046;SDS011;31510;48.122;11.576;2022-08-04T17:43:52;6.35;;;2.63;;
40046;SDS011;31510;48.122;11.576;2022-08-04T17:46:20;5.22;;;3.00;;
40046;SDS011;31510;48.122;11.576;2022-08-04T17:48:59;3.08;;;2.55;;
40046;SDS011;31510;48.122;11.576;2022-08-04T17:51:39;4.82;;;2.67;;
40046;SDS011;31510;48.122;11.576;2022-08-04T17:54:13;3.00;;;2.55;;
40046;SDS011;31510;48.122;11.576;2022-08-04T17:56:43;5.07;;;3.20;;
40046;SDS011;31510;48.122;11.576;2022-08-04T17:59:14;4.35;;;3.42;;
40046;SDS011;31510;48.122;11.576;2022-08-04T18:09:48;7.22;;;4.35;;
40046;SDS011;31510;48.122;11.576;2022-08-04T18:12:33;21.58;;;6.28;;
40046;SDS011;31510;48.122;11.576;2022-08-04T18:15:03;7.60;;;4.88;;
40046;SDS011;31510;48.122;11.576;2022-08-04T18:17:38;8.30;;;5.63;;
40046;SDS011;31510;48.122;11.576;2022-08-04T18:20:15;9.68;;;7.82;;
40046;SDS011;31510;48.122;11.576;2022-08-04T18:22:44;10.90;;;6.20;;
40046;SDS011;31510;48.122;11.576;2022-08-04T18:25:11;13.38;;;9.27;;
40046;SDS011;31510;48.122;11.576;2022-08-04T18:30:20;14.15;;;6.55;;
40046;SDS011;31510;48.122;11.576;2022-08-04T18:32:47;10.43;;;7.80;;
40046;SDS011;31510;48.122;11.576;2022-08-04T18:35:12;7.50;;;5.70;;
40046;SDS011;31510;48.122;11.576;2022-08-04T18:37:38;16.65;;;6.95;;
40046;SDS011;31510;48.122;11.576;2022-08-04T18:40:05;7.80;;;5.93;;
40046;SDS011;31510;48.122;11.576;2022-08-04T18:42:31;11.27;;;6.65;;
40046;SDS011;31510;48.122;11.576;2022-08-04T18:44:57;10.13;;;6.40;;
40046;SDS011;31510;48.122;11.576;2022-08-04T18:47:22;10.45;;;7.60;;
40046;SDS011;31510;48.122;11.576;2022-08-04T18:49:51;9.82;;;7.88;;
40046;SDS011;31510;48.122;11.576;2022-08-04T18:52:17;10.93;;;5.72;;
40046;SDS011;31510;48.122;11.576;2022-08-04T18:54:42;6.57;;;5.22;;
40046;SDS011;31510;48.122;11.576;2022-08-04T18:57:08;5.75;;;4.88;;
40046;SDS011;31510;48.122;11.576;2022-08-04T18:59:34;7.43;;;5.75;;
40046;SDS011;31510;48.122;11.576;2022-08-04T19:01:59;9.40;;;5.70;;
40046;SDS011;31510;48.122;11.576;2022-08-04T19:04:24;15.57;;;5.88;;
40046;SDS011;31510;48.122;11.576;2022-08-04T19:06:50;7.93;;;6.07;;
40046;SDS011;31510;48.122;11.576;2022-08-04T19:09:15;9.13;;;6.13;;
40046;SDS011;31510;48.122;11.576;2022-08-04T19:11:41;12.03;;;7.90;;
40046;SDS011;31510;48.122;11.576;2022-08-04T19:14:06;8.53;;;6.70;;
40046;SDS011;31510;48.122;11.576;2022-08-04T19:16:32;9.55;;;6.65;;
40046;SDS011;31510;48.122;11.576;2022-08-04T19:18:58;25.38;;;8.30;;
40046;SDS011;31510;48.122;11.576;2022-08-04T19:21:25;8.43;;;6.13;;
40046;SDS011;31510;48.122;11.576;2022-08-04T19:23:51;11.05;;;8.02;;
40046;SDS011;31510;48.122;11.576;2022-08-04T19:26:17;8.32;;;6.20;;
40046;SDS011;31510;48.122;11.576;2022-08-04T19:28:43;7.40;;;6.07;;
40046;SDS011;31510;48.122;11.576;2022-08-04T19:31:08;9.27;;;5.82;;